sensor_id;sensor_type;location;lat;lon;timestamp;P1;durP1;ratioP1;P2;durP2;ratioP2
26080;SDS011;13991;51.174;4.438;2023-11-19T00:02:25;14.60;;;3.03;;
26080;SDS011;13991;51.174;4.438;2023-11-19T00:04:51;17.63;;;2.50;;
26080;SDS011;13991;51.174;4.438;2023-11-19T00:07:18;18.40;;;2.70;;
26080;SDS011;13991;51.174;4.438;2023-11-19T00:09:44;12.67;;;2.97;;
26080;SDS011;13991;51.174;4.438;2023-11-19T00:12:10;15.00;;;2.67;;
26080;SDS011;13991;51.174;4.438;2023-11-19T00:14:35;21.80;;;2.67;;
26080;SDS011;13991;51.174;4.438;2023-11-19T00:17:01;16.90;;;2.57;;
26080;SDS011;13991;51.174;4.438;2023-11-19T00:19:27;15.97;;;2.07;;
26080;SDS011;13991;51.174;4.438;2023-11-19T00:21:52;20.47;;;3.70;;
26080;SDS011;13991;51.174;4.438;2023-11-19T00:24:18;5.27;;;1.97;;
26080;SDS011;13991;51.174;4.438;2023-11-19T00:26:45;11.73;;;2.33;;
26080;SDS011;13991;51.174;4.438;2023-11-19T00:29:11;16.07;;;3.00;;
26080;SDS011;13991;51.174;4.438;2023-11-19T00:31:38;15.87;;;2.20;;
26080;SDS011;13991;51.174;4.438;2023-11-19T00:34:04;27.80;;;2.83;;
26080;SDS011;13991;51.174;4.438;2023-11-19T00:36:31;25.33;;;2.70;;
26080;SDS011;13991;51.174;4.438;2023-11-19T00:38:56;37.17;;;2.47;;
26080;SDS011;13991;51.174;4.438;2023-11-19T00:41:23;27.77;;;2.70;;
26080;SDS011;13991;51.174;4.438;2023-11-19T00:43:48;26.90;;;1.80;;
26080;SDS011;13991;51.174;4.438;2023-11-19T00:46:14;25.53;;;2.57;;
26080;SDS011;13991;51.174;4.438;2023-11-19T00:48:40;14.57;;;1.97;;
26080;SDS011;13991;51.174;4.438;2023-11-19T00:51:06;20.87;;;1.90;;
26080;SDS011;13991;51.174;4.438;2023-11-19T00:53:31;30.40;;;2.90;;
26080;SDS011;13991;51.174;4.438;2023-11-19T00:55:58;28.53;;;2.60;;
26080;SDS011;13991;51.174;4.438;2023-11-19T00:58:24;31.00;;;3.40;;
26080;SDS011;13991;51.174;4.438;2023-11-19T01:00:50;25.90;;;2.77;;
26080;SDS011;13991;51.174;4.438;2023-11-19T01:03:16;34.23;;;3.07;;
26080;SDS011;13991;51.174;4.438;2023-11-19T01:05:42;27.97;;;3.00;;
26080;SDS011;13991;51.174;4.438;2023-11-19T01:08:08;39.77;;;2.97;;
26080;SDS011;13991;51.174;4.438;2023-11-19T01:10:36;32.30;;;3.87;;
26080;SDS011;13991;51.174;4.438;2023-11-19T01:13:02;30.20;;;2.73;;
26080;SDS011;13991;51.174;4.438;2023-11-19T01:15:30;38.63;;;4.07;;
26080;SDS011;13991;51.174;4.438;2023-11-19T01:17:56;41.37;;;4.10;;
26080;SDS011;13991;51.174;4.438;2023-11-19T01:20:22;37.07;;;5.47;;
26080;SDS011;13991;51.174;4.438;2023-11-19T01:22:49;38.93;;;3.30;;
26080;SDS011;13991;51.174;4.438;2023-11-19T01:25:15;50.63;;;3.97;;
26080;SDS011;13991;51.174;4.438;2023-11-19T01:27:41;43.17;;;3.67;;
26080;SDS011;13991;51.174;4.438;2023-11-19T01:30:07;40.30;;;3.67;;
26080;SDS011;13991;51.174;4.438;2023-11-19T01:32:35;34.23;;;3.93;;
26080;SDS011;13991;51.174;4.438;2023-11-19T01:35:02;41.87;;;4.77;;
26080;SDS011;13991;51.174;4.438;2023-11-19T01:37:28;48.50;;;4.00;;
26080;SDS011;13991;51.174;4.438;2023-11-19T01:39:54;44.77;;;3.93;;
26080;SDS011;13991;51.174;4.438;2023-11-19T01:42:19;40.90;;;3.53;;
26080;SDS011;13991;51.174;4.438;2023-11-19T01:45:06;41.67;;;5.90;;
26080;SDS011;13991;51.174;4.438;2023-11-19T01:47:32;34.67;;;3.70;;
26080;SDS011;13991;51.174;4.438;2023-11-19T01:49:58;29.00;;;3.07;;
26080;SDS011;13991;51.174;4.438;2023-11-19T01:52:25;54.77;;;4.40;;
26080;SDS011;13991;51.174;4.438;2023-11-19T01:54:51;52.83;;;3.90;;
26080;SDS011;13991;51.174;4.438;2023-11-19T01:57:18;37.53;;;4.83;;
26080;SDS011;13991;51.174;4.438;2023-11-19T01:59:47;52.73;;;4.60;;
26080;SDS011;13991;51.174;4.438;2023-11-19T02:02:14;41.53;;;4.53;;
26080;SDS011;13991;51.174;4.438;2023-11-19T02:04:40;35.73;;;3.77;;
26080;SDS011;13991;51.174;4.438;2023-11-19T02:07:06;45.77;;;4.80;;
26080;SDS011;13991;51.174;4.438;2023-11-19T02:09:33;53.70;;;5.33;;
26080;SDS011;13991;51.174;4.438;2023-11-19T02:11:59;42.13;;;3.83;;
26080;SDS011;13991;51.174;4.438;2023-11-19T02:14:25;40.13;;;4.60;;
26080;SDS011;13991;51.174;4.438;2023-11-19T02:16:52;45.57;;;3.63;;
26080;SDS011;13991;51.174;4.438;2023-11-19T02:19:21;54.40;;;4.37;;
26080;SDS011;13991;51.174;4.438;2023-11-19T02:21:46;43.83;;;4.63;;
26080;SDS011;13991;51.174;4.438;2023-11-19T02:24:13;50.37;;;3.97;;
26080;SDS011;13991;51.174;4.438;2023-11-19T02:29:30;37.23;;;3.57;;
26080;SDS011;13991;51.174;4.438;2023-11-19T02:31:57;57.73;;;5.27;;
26080;SDS011;13991;51.174;4.438;2023-11-19T02:34:22;40.43;;;3.70;;
26080;SDS011;13991;51.174;4.438;2023-11-19T02:36:48;46.77;;;4.80;;
26080;SDS011;13991;51.174;4.438;2023-11-19T02:39:14;52.93;;;4.10;;
26080;SDS011;13991;51.174;4.438;2023-11-19T02:41:46;63.83;;;4.93;;
26080;SDS011;13991;51.174;4.438;2023-11-19T02:44:12;60.70;;;5.33;;
26080;SDS011;13991;51.174;4.438;2023-11-19T02:46:38;51.57;;;3.70;;
26080;SDS011;13991;51.174;4.438;2023-11-19T02:49:07;53.53;;;5.20;;
26080;SDS011;13991;51.174;4.438;2023-11-19T02:51:33;53.90;;;5.27;;
26080;SDS011;13991;51.174;4.438;2023-11-19T02:53:59;50.87;;;4.60;;
26080;SDS011;13991;51.174;4.438;2023-11-19T02:56:25;54.60;;;4.47;;
26080;SDS011;13991;51.174;4.438;2023-11-19T02:58:51;58.37;;;5.50;;
26080;SDS011;13991;51.174;4.438;2023-11-19T03:01:24;57.87;;;5.60;;
26080;SDS011;13991;51.174;4.438;2023-11-19T03:03:55;59.20;;;5.73;;
26080;SDS011;13991;51.174;4.438;2023-11-19T03:06:26;50.93;;;5.23;;
26080;SDS011;13991;51.174;4.438;2023-11-19T03:08:55;49.80;;;5.70;;
26080;SDS011;13991;51.174;4.438;2023-11-19T03:11:20;56.03;;;5.43;;
26080;SDS011;13991;51.174;4.438;2023-11-19T03:13:46;54.20;;;4.77;;
26080;SDS011;13991;51.174;4.438;2023-11-19T03:16:12;56.80;;;4.93;;
26080;SDS011;13991;51.174;4.438;2023-11-19T03:18:38;57.70;;;4.90;;
26080;SDS011;13991;51.174;4.438;2023-11-19T03:21:06;52.53;;;5.37;;
26080;SDS011;13991;51.174;4.438;2023-11-19T03:23:33;63.13;;;5.73;;
26080;SDS011;13991;51.174;4.438;2023-11-19T03:25:59;46.40;;;4.80;;
26080;SDS011;13991;51.174;4.438;2023-11-19T03:28:28;63.97;;;5.07;;
26080;SDS011;13991;51.174;4.438;2023-11-19T03:30:54;63.80;;;6.20;;
26080;SDS011;13991;51.174;4.438;2023-11-19T03:33:20;56.20;;;6.70;;
26080;SDS011;13991;51.174;4.438;2023-11-19T03:35:46;45.30;;;4.97;;
26080;SDS011;13991;51.174;4.438;2023-11-19T03:38:11;65.07;;;7.07;;
26080;SDS011;13991;51.174;4.438;2023-11-19T03:40:38;54.50;;;5.67;;
26080;SDS011;13991;51.174;4.438;2023-11-19T03:43:04;51.03;;;5.10;;
26080;SDS011;13991;51.174;4.438;2023-11-19T03:45:30;62.80;;;7.00;;
26080;SDS011;13991;51.174;4.438;2023-11-19T03:47:56;64.93;;;5.47;;
26080;SDS011;13991;51.174;4.438;2023-11-19T03:50:21;68.07;;;5.63;;
26080;SDS011;13991;51.174;4.438;2023-11-19T03:52:47;54.57;;;6.83;;
26080;SDS011;13991;51.174;4.438;2023-11-19T03:55:13;53.37;;;5.97;;
26080;SDS011;13991;51.174;4.438;2023-11-19T03:57:39;55.17;;;4.97;;
26080;SDS011;13991;51.174;4.438;2023-11-19T04:00:05;59.03;;;5.10;;
26080;SDS011;13991;51.174;4.438;2023-11-19T04:02:39;63.93;;;7.43;;
26080;SDS011;13991;51.174;4.438;2023-11-19T04:05:05;58.43;;;6.27;;
26080;SDS011;13991;51.174;4.438;2023-11-19T04:07:31;39.50;;;4.77;;
26080;SDS011;13991;51.174;4.438;2023-11-19T04:09:58;50.60;;;5.33;;
26080;SDS011;13991;51.174;4.438;2023-11-19T04:12:24;55.37;;;5.67;;
26080;SDS011;13991;51.174;4.438;2023-11-19T04:14:49;66.67;;;5.40;;
26080;SDS011;13991;51.174;4.438;2023-11-19T04:17:15;57.17;;;4.80;;
26080;SDS011;13991;51.174;4.438;2023-11-19T04:19:41;54.00;;;4.60;;
26080;SDS011;13991;51.174;4.438;2023-11-19T04:22:07;46.23;;;4.57;;
26080;SDS011;13991;51.174;4.438;2023-11-19T04:24:34;62.77;;;6.90;;
26080;SDS011;13991;51.174;4.438;2023-11-19T04:27:00;44.83;;;5.07;;
26080;SDS011;13991;51.174;4.438;2023-11-19T04:29:25;41.63;;;5.13;;
26080;SDS011;13991;51.174;4.438;2023-11-19T04:31:51;56.43;;;5.87;;
26080;SDS011;13991;51.174;4.438;2023-11-19T04:34:17;68.83;;;6.77;;
26080;SDS011;13991;51.174;4.438;2023-11-19T04:36:42;52.27;;;7.07;;
26080;SDS011;13991;51.174;4.438;2023-11-19T04:39:09;62.80;;;7.90;;
26080;SDS011;13991;51.174;4.438;2023-11-19T04:41:50;67.93;;;5.27;;
26080;SDS011;13991;51.174;4.438;2023-11-19T04:44:19;56.93;;;5.30;;
26080;SDS011;13991;51.174;4.438;2023-11-19T04:46:45;58.87;;;4.17;;
26080;SDS011;13991;51.174;4.438;2023-11-19T04:49:11;71.33;;;5.97;;
26080;SDS011;13991;51.174;4.438;2023-11-19T04:51:38;67.17;;;6.77;;
26080;SDS011;13991;51.174;4.438;2023-11-19T04:54:05;59.63;;;7.10;;
26080;SDS011;13991;51.174;4.438;2023-11-19T04:56:34;64.60;;;6.47;;
26080;SDS011;13991;51.174;4.438;2023-11-19T04:59:01;59.03;;;6.10;;
26080;SDS011;13991;51.174;4.438;2023-11-19T05:01:27;52.33;;;6.03;;
26080;SDS011;13991;51.174;4.438;2023-11-19T05:03:53;67.60;;;5.73;;
26080;SDS011;13991;51.174;4.438;2023-11-19T05:06:19;43.40;;;4.23;;
26080;SDS011;13991;51.174;4.438;2023-11-19T05:08:44;51.00;;;5.50;;
26080;SDS011;13991;51.174;4.438;2023-11-19T05:11:11;60.87;;;7.40;;
26080;SDS011;13991;51.174;4.438;2023-11-19T05:13:43;62.50;;;6.10;;
26080;SDS011;13991;51.174;4.438;2023-11-19T05:16:10;63.10;;;6.53;;
26080;SDS011;13991;51.174;4.438;2023-11-19T05:18:35;64.47;;;5.47;;
26080;SDS011;13991;51.174;4.438;2023-11-19T05:21:01;67.33;;;6.93;;
26080;SDS011;13991;51.174;4.438;2023-11-19T05:23:26;71.53;;;5.83;;
26080;SDS011;13991;51.174;4.438;2023-11-19T05:25:52;63.17;;;5.90;;
26080;SDS011;13991;51.174;4.438;2023-11-19T05:28:18;42.57;;;5.40;;
26080;SDS011;13991;51.174;4.438;2023-11-19T05:30:44;57.80;;;5.93;;
26080;SDS011;13991;51.174;4.438;2023-11-19T05:33:10;54.40;;;7.40;;
26080;SDS011;13991;51.174;4.438;2023-11-19T05:35:35;52.87;;;6.17;;
26080;SDS011;13991;51.174;4.438;2023-11-19T05:38:01;65.43;;;6.17;;
26080;SDS011;13991;51.174;4.438;2023-11-19T05:40:27;66.37;;;5.03;;
26080;SDS011;13991;51.174;4.438;2023-11-19T05:42:53;51.40;;;6.10;;
26080;SDS011;13991;51.174;4.438;2023-11-19T05:45:18;67.00;;;6.87;;
26080;SDS011;13991;51.174;4.438;2023-11-19T05:47:44;66.07;;;6.30;;
26080;SDS011;13991;51.174;4.438;2023-11-19T05:50:10;70.70;;;7.43;;
26080;SDS011;13991;51.174;4.438;2023-11-19T05:52:35;65.70;;;5.87;;
26080;SDS011;13991;51.174;4.438;2023-11-19T05:55:01;51.47;;;5.80;;
26080;SDS011;13991;51.174;4.438;2023-11-19T05:57:36;64.07;;;6.03;;
26080;SDS011;13991;51.174;4.438;2023-11-19T06:00:02;57.20;;;5.67;;
26080;SDS011;13991;51.174;4.438;2023-11-19T06:02:32;58.07;;;5.77;;
26080;SDS011;13991;51.174;4.438;2023-11-19T06:04:58;42.30;;;6.17;;
26080;SDS011;13991;51.174;4.438;2023-11-19T06:07:24;71.83;;;6.17;;
26080;SDS011;13991;51.174;4.438;2023-11-19T06:09:50;58.20;;;6.93;;
26080;SDS011;13991;51.174;4.438;2023-11-19T06:12:15;75.17;;;7.07;;
26080;SDS011;13991;51.174;4.438;2023-11-19T06:14:41;61.97;;;5.63;;
26080;SDS011;13991;51.174;4.438;2023-11-19T06:17:07;67.67;;;7.20;;
26080;SDS011;13991;51.174;4.438;2023-11-19T06:19:33;52.77;;;7.07;;
26080;SDS011;13991;51.174;4.438;2023-11-19T06:21:59;63.87;;;6.30;;
26080;SDS011;13991;51.174;4.438;2023-11-19T06:24:25;52.27;;;5.50;;
26080;SDS011;13991;51.174;4.438;2023-11-19T06:26:50;66.80;;;6.77;;
26080;SDS011;13991;51.174;4.438;2023-11-19T06:29:16;62.10;;;5.00;;
26080;SDS011;13991;51.174;4.438;2023-11-19T06:31:44;60.60;;;5.67;;
26080;SDS011;13991;51.174;4.438;2023-11-19T06:34:10;58.50;;;5.77;;
26080;SDS011;13991;51.174;4.438;2023-11-19T06:36:36;45.53;;;4.87;;
26080;SDS011;13991;51.174;4.438;2023-11-19T06:39:01;52.37;;;5.73;;
26080;SDS011;13991;51.174;4.438;2023-11-19T06:41:27;60.03;;;7.50;;
26080;SDS011;13991;51.174;4.438;2023-11-19T06:43:54;55.80;;;5.07;;
26080;SDS011;13991;51.174;4.438;2023-11-19T06:46:19;68.03;;;6.43;;
26080;SDS011;13991;51.174;4.438;2023-11-19T06:48:45;66.10;;;5.83;;
26080;SDS011;13991;51.174;4.438;2023-11-19T06:51:11;60.00;;;7.47;;
26080;SDS011;13991;51.174;4.438;2023-11-19T06:53:37;76.97;;;7.53;;
26080;SDS011;13991;51.174;4.438;2023-11-19T06:56:05;57.77;;;5.47;;
26080;SDS011;13991;51.174;4.438;2023-11-19T06:58:41;66.77;;;7.03;;
26080;SDS011;13991;51.174;4.438;2023-11-19T07:01:07;67.47;;;6.20;;
26080;SDS011;13991;51.174;4.438;2023-11-19T07:03:34;56.23;;;6.63;;
26080;SDS011;13991;51.174;4.438;2023-11-19T07:06:00;71.93;;;5.83;;
26080;SDS011;13991;51.174;4.438;2023-11-19T07:08:25;76.23;;;6.37;;
26080;SDS011;13991;51.174;4.438;2023-11-19T07:10:54;61.10;;;6.40;;
26080;SDS011;13991;51.174;4.438;2023-11-19T07:13:19;62.70;;;7.00;;
26080;SDS011;13991;51.174;4.438;2023-11-19T07:15:45;52.83;;;5.80;;
26080;SDS011;13991;51.174;4.438;2023-11-19T07:18:11;52.80;;;5.23;;
26080;SDS011;13991;51.174;4.438;2023-11-19T07:20:37;64.00;;;7.37;;
26080;SDS011;13991;51.174;4.438;2023-11-19T07:23:03;62.20;;;5.80;;
26080;SDS011;13991;51.174;4.438;2023-11-19T07:25:29;59.33;;;7.40;;
26080;SDS011;13991;51.174;4.438;2023-11-19T07:27:55;64.47;;;6.13;;
26080;SDS011;13991;51.174;4.438;2023-11-19T07:30:21;67.03;;;7.40;;
26080;SDS011;13991;51.174;4.438;2023-11-19T07:32:47;52.97;;;6.63;;
26080;SDS011;13991;51.174;4.438;2023-11-19T07:35:13;65.93;;;6.70;;
26080;SDS011;13991;51.174;4.438;2023-11-19T07:37:40;65.77;;;6.07;;
26080;SDS011;13991;51.174;4.438;2023-11-19T07:40:07;95.77;;;7.40;;
26080;SDS011;13991;51.174;4.438;2023-11-19T07:42:33;71.30;;;7.20;;
26080;SDS011;13991;51.174;4.438;2023-11-19T07:44:59;54.87;;;5.67;;
26080;SDS011;13991;51.174;4.438;2023-11-19T07:47:24;78.60;;;7.67;;
26080;SDS011;13991;51.174;4.438;2023-11-19T07:49:50;62.33;;;6.07;;
26080;SDS011;13991;51.174;4.438;2023-11-19T07:52:16;68.77;;;6.90;;
26080;SDS011;13991;51.174;4.438;2023-11-19T07:54:42;77.90;;;7.90;;
26080;SDS011;13991;51.174;4.438;2023-11-19T07:57:07;67.93;;;6.90;;
26080;SDS011;13991;51.174;4.438;2023-11-19T07:59:33;72.10;;;7.07;;
26080;SDS011;13991;51.174;4.438;2023-11-19T08:01:59;56.93;;;5.33;;
26080;SDS011;13991;51.174;4.438;2023-11-19T08:04:24;52.53;;;6.17;;
26080;SDS011;13991;51.174;4.438;2023-11-19T08:06:50;46.17;;;6.30;;
26080;SDS011;13991;51.174;4.438;2023-11-19T08:09:16;63.53;;;6.43;;
26080;SDS011;13991;51.174;4.438;2023-11-19T08:11:42;54.57;;;6.73;;
26080;SDS011;13991;51.174;4.438;2023-11-19T08:14:08;57.97;;;5.90;;
26080;SDS011;13991;51.174;4.438;2023-11-19T08:16:34;60.33;;;5.73;;
26080;SDS011;13991;51.174;4.438;2023-11-19T08:19:01;61.10;;;6.53;;
26080;SDS011;13991;51.174;4.438;2023-11-19T08:21:28;69.93;;;9.00;;
26080;SDS011;13991;51.174;4.438;2023-11-19T08:23:54;66.73;;;9.03;;
26080;SDS011;13991;51.174;4.438;2023-11-19T08:26:20;76.27;;;6.43;;
26080;SDS011;13991;51.174;4.438;2023-11-19T08:28:45;54.53;;;5.10;;
26080;SDS011;13991;51.174;4.438;2023-11-19T08:31:11;63.13;;;6.53;;
26080;SDS011;13991;51.174;4.438;2023-11-19T08:33:37;52.90;;;7.27;;
26080;SDS011;13991;51.174;4.438;2023-11-19T08:36:03;54.30;;;6.57;;
26080;SDS011;13991;51.174;4.438;2023-11-19T08:38:29;59.40;;;6.60;;
26080;SDS011;13991;51.174;4.438;2023-11-19T08:40:55;59.33;;;6.60;;
26080;SDS011;13991;51.174;4.438;2023-11-19T08:43:27;42.50;;;5.07;;
26080;SDS011;13991;51.174;4.438;2023-11-19T08:45:54;73.07;;;8.93;;
26080;SDS011;13991;51.174;4.438;2023-11-19T08:48:19;72.57;;;7.53;;
26080;SDS011;13991;51.174;4.438;2023-11-19T08:50:45;71.90;;;8.90;;
26080;SDS011;13991;51.174;4.438;2023-11-19T08:53:10;71.30;;;9.43;;
26080;SDS011;13991;51.174;4.438;2023-11-19T08:55:36;67.13;;;7.45;;
26080;SDS011;13991;51.174;4.438;2023-11-19T08:58:02;75.60;;;8.15;;
26080;SDS011;13991;51.174;4.438;2023-11-19T09:00:28;67.47;;;7.77;;
26080;SDS011;13991;51.174;4.438;2023-11-19T09:02:54;64.33;;;7.67;;
26080;SDS011;13991;51.174;4.438;2023-11-19T09:05:20;72.70;;;7.60;;
26080;SDS011;13991;51.174;4.438;2023-11-19T09:07:46;63.50;;;6.53;;
26080;SDS011;13991;51.174;4.438;2023-11-19T09:10:11;60.73;;;6.67;;
26080;SDS011;13991;51.174;4.438;2023-11-19T09:12:37;61.43;;;7.40;;
26080;SDS011;13991;51.174;4.438;2023-11-19T09:15:03;68.60;;;7.43;;
26080;SDS011;13991;51.174;4.438;2023-11-19T09:17:29;70.13;;;7.20;;
26080;SDS011;13991;51.174;4.438;2023-11-19T09:19:55;55.27;;;6.33;;
26080;SDS011;13991;51.174;4.438;2023-11-19T09:22:20;56.60;;;6.90;;
26080;SDS011;13991;51.174;4.438;2023-11-19T09:24:46;60.20;;;5.87;;
26080;SDS011;13991;51.174;4.438;2023-11-19T09:27:13;68.57;;;6.07;;
26080;SDS011;13991;51.174;4.438;2023-11-19T09:29:38;63.43;;;6.07;;
26080;SDS011;13991;51.174;4.438;2023-11-19T09:32:04;52.70;;;5.50;;
26080;SDS011;13991;51.174;4.438;2023-11-19T09:34:30;65.10;;;6.77;;
26080;SDS011;13991;51.174;4.438;2023-11-19T09:36:57;49.93;;;5.50;;
26080;SDS011;13991;51.174;4.438;2023-11-19T09:39:22;47.30;;;5.17;;
26080;SDS011;13991;51.174;4.438;2023-11-19T09:41:50;55.07;;;5.67;;
26080;SDS011;13991;51.174;4.438;2023-11-19T09:44:16;60.00;;;5.67;;
26080;SDS011;13991;51.174;4.438;2023-11-19T09:46:44;54.47;;;5.37;;
26080;SDS011;13991;51.174;4.438;2023-11-19T09:49:10;43.20;;;5.37;;
26080;SDS011;13991;51.174;4.438;2023-11-19T09:51:36;44.13;;;5.63;;
26080;SDS011;13991;51.174;4.438;2023-11-19T09:54:02;60.90;;;5.13;;
26080;SDS011;13991;51.174;4.438;2023-11-19T09:56:28;50.00;;;4.60;;
26080;SDS011;13991;51.174;4.438;2023-11-19T09:58:55;42.57;;;5.67;;
26080;SDS011;13991;51.174;4.438;2023-11-19T10:01:20;48.07;;;5.47;;
26080;SDS011;13991;51.174;4.438;2023-11-19T10:03:46;38.60;;;5.30;;
26080;SDS011;13991;51.174;4.438;2023-11-19T10:06:12;55.93;;;5.10;;
26080;SDS011;13991;51.174;4.438;2023-11-19T10:08:41;55.50;;;5.37;;
26080;SDS011;13991;51.174;4.438;2023-11-19T10:11:08;64.50;;;7.17;;
26080;SDS011;13991;51.174;4.438;2023-11-19T10:13:36;46.77;;;4.73;;
26080;SDS011;13991;51.174;4.438;2023-11-19T10:18:37;54.40;;;5.80;;
26080;SDS011;13991;51.174;4.438;2023-11-19T10:21:04;51.93;;;5.10;;
26080;SDS011;13991;51.174;4.438;2023-11-19T10:23:30;46.37;;;6.53;;
26080;SDS011;13991;51.174;4.438;2023-11-19T10:26:02;44.00;;;4.77;;
26080;SDS011;13991;51.174;4.438;2023-11-19T10:28:38;36.33;;;4.77;;
26080;SDS011;13991;51.174;4.438;2023-11-19T10:31:05;47.47;;;4.93;;
26080;SDS011;13991;51.174;4.438;2023-11-19T10:33:32;35.40;;;4.70;;
26080;SDS011;13991;51.174;4.438;2023-11-19T10:35:57;46.37;;;6.03;;
26080;SDS011;13991;51.174;4.438;2023-11-19T10:38:24;44.80;;;4.30;;
26080;SDS011;13991;51.174;4.438;2023-11-19T10:40:50;41.53;;;4.67;;
26080;SDS011;13991;51.174;4.438;2023-11-19T10:43:18;55.83;;;4.57;;
26080;SDS011;13991;51.174;4.438;2023-11-19T10:45:44;47.83;;;5.37;;
26080;SDS011;13991;51.174;4.438;2023-11-19T10:48:11;44.03;;;4.97;;
26080;SDS011;13991;51.174;4.438;2023-11-19T10:50:38;33.27;;;3.87;;
26080;SDS011;13991;51.174;4.438;2023-11-19T10:53:05;49.27;;;5.37;;
26080;SDS011;13991;51.174;4.438;2023-11-19T10:55:33;43.07;;;4.70;;
26080;SDS011;13991;51.174;4.438;2023-11-19T10:58:01;42.40;;;5.37;;
26080;SDS011;13991;51.174;4.438;2023-11-19T11:00:31;41.63;;;4.87;;
26080;SDS011;13991;51.174;4.438;2023-11-19T11:03:10;47.17;;;5.10;;
26080;SDS011;13991;51.174;4.438;2023-11-19T11:05:41;37.50;;;4.53;;
26080;SDS011;13991;51.174;4.438;2023-11-19T11:08:07;42.77;;;6.40;;
26080;SDS011;13991;51.174;4.438;2023-11-19T11:10:35;49.93;;;5.17;;
26080;SDS011;13991;51.174;4.438;2023-11-19T11:13:07;51.03;;;5.87;;
26080;SDS011;13991;51.174;4.438;2023-11-19T11:15:33;43.77;;;5.03;;
26080;SDS011;13991;51.174;4.438;2023-11-19T11:18:00;37.90;;;4.90;;
26080;SDS011;13991;51.174;4.438;2023-11-19T11:20:28;44.40;;;4.70;;
26080;SDS011;13991;51.174;4.438;2023-11-19T11:26:05;52.47;;;6.07;;
26080;SDS011;13991;51.174;4.438;2023-11-19T11:28:43;51.93;;;6.50;;
26080;SDS011;13991;51.174;4.438;2023-11-19T11:31:31;37.83;;;5.37;;
26080;SDS011;13991;51.174;4.438;2023-11-19T11:34:20;49.30;;;4.97;;
26080;SDS011;13991;51.174;4.438;2023-11-19T11:39:33;54.50;;;5.97;;
26080;SDS011;13991;51.174;4.438;2023-11-19T11:42:33;38.30;;;4.77;;
26080;SDS011;13991;51.174;4.438;2023-11-19T11:44:58;48.00;;;4.87;;
26080;SDS011;13991;51.174;4.438;2023-11-19T11:50:13;38.23;;;4.67;;
26080;SDS011;13991;51.174;4.438;2023-11-19T11:55:28;39.37;;;4.67;;
26080;SDS011;13991;51.174;4.438;2023-11-19T11:57:57;43.33;;;4.50;;
26080;SDS011;13991;51.174;4.438;2023-11-19T12:03:01;54.27;;;6.20;;
26080;SDS011;13991;51.174;4.438;2023-11-19T12:05:29;45.63;;;6.00;;
26080;SDS011;13991;51.174;4.438;2023-11-19T12:07:57;55.00;;;4.60;;
26080;SDS011;13991;51.174;4.438;2023-11-19T12:10:26;41.27;;;4.60;;
26080;SDS011;13991;51.174;4.438;2023-11-19T12:12:58;41.20;;;4.60;;
26080;SDS011;13991;51.174;4.438;2023-11-19T12:15:27;42.80;;;5.23;;
26080;SDS011;13991;51.174;4.438;2023-11-19T12:17:54;44.67;;;4.77;;
26080;SDS011;13991;51.174;4.438;2023-11-19T12:20:21;32.67;;;4.60;;
26080;SDS011;13991;51.174;4.438;2023-11-19T12:22:48;49.97;;;4.93;;
26080;SDS011;13991;51.174;4.438;2023-11-19T12:25:15;49.80;;;4.57;;
26080;SDS011;13991;51.174;4.438;2023-11-19T12:27:43;49.80;;;5.77;;
26080;SDS011;13991;51.174;4.438;2023-11-19T12:30:10;37.97;;;4.70;;
26080;SDS011;13991;51.174;4.438;2023-11-19T12:32:43;46.50;;;5.00;;
26080;SDS011;13991;51.174;4.438;2023-11-19T12:35:12;50.83;;;5.17;;
26080;SDS011;13991;51.174;4.438;2023-11-19T12:40:14;48.77;;;5.63;;
26080;SDS011;13991;51.174;4.438;2023-11-19T12:42:45;48.57;;;5.70;;
26080;SDS011;13991;51.174;4.438;2023-11-19T12:45:14;35.30;;;4.33;;
26080;SDS011;13991;51.174;4.438;2023-11-19T12:47:41;56.93;;;5.13;;
26080;SDS011;13991;51.174;4.438;2023-11-19T12:50:08;46.47;;;5.07;;
26080;SDS011;13991;51.174;4.438;2023-11-19T12:52:35;50.77;;;5.43;;
26080;SDS011;13991;51.174;4.438;2023-11-19T12:55:02;50.70;;;5.23;;
26080;SDS011;13991;51.174;4.438;2023-11-19T12:57:47;54.40;;;4.60;;
26080;SDS011;13991;51.174;4.438;2023-11-19T13:00:20;59.23;;;5.27;;
26080;SDS011;13991;51.174;4.438;2023-11-19T13:02:47;42.67;;;4.50;;
26080;SDS011;13991;51.174;4.438;2023-11-19T13:05:30;49.10;;;4.77;;
26080;SDS011;13991;51.174;4.438;2023-11-19T13:08:01;50.03;;;5.10;;
26080;SDS011;13991;51.174;4.438;2023-11-19T13:10:56;50.30;;;5.27;;
26080;SDS011;13991;51.174;4.438;2023-11-19T13:13:20;34.10;;;4.27;;
26080;SDS011;13991;51.174;4.438;2023-11-19T13:15:46;45.03;;;3.90;;
26080;SDS011;13991;51.174;4.438;2023-11-19T13:18:12;43.50;;;6.30;;
26080;SDS011;13991;51.174;4.438;2023-11-19T13:20:41;30.93;;;4.47;;
26080;SDS011;13991;51.174;4.438;2023-11-19T13:23:06;39.33;;;3.93;;
26080;SDS011;13991;51.174;4.438;2023-11-19T13:25:32;49.87;;;5.03;;
26080;SDS011;13991;51.174;4.438;2023-11-19T13:27:59;36.57;;;4.70;;
26080;SDS011;13991;51.174;4.438;2023-11-19T13:30:25;31.57;;;4.37;;
26080;SDS011;13991;51.174;4.438;2023-11-19T13:32:51;56.40;;;5.27;;
26080;SDS011;13991;51.174;4.438;2023-11-19T13:35:18;40.13;;;5.20;;
26080;SDS011;13991;51.174;4.438;2023-11-19T13:37:44;43.53;;;5.20;;
26080;SDS011;13991;51.174;4.438;2023-11-19T13:40:10;50.87;;;6.23;;
26080;SDS011;13991;51.174;4.438;2023-11-19T13:42:42;37.30;;;4.70;;
26080;SDS011;13991;51.174;4.438;2023-11-19T13:45:09;38.53;;;5.33;;
26080;SDS011;13991;51.174;4.438;2023-11-19T13:47:41;41.80;;;5.07;;
26080;SDS011;13991;51.174;4.438;2023-11-19T13:50:12;38.73;;;4.80;;
26080;SDS011;13991;51.174;4.438;2023-11-19T13:52:45;34.27;;;3.83;;
26080;SDS011;13991;51.174;4.438;2023-11-19T13:55:12;48.27;;;4.43;;
26080;SDS011;13991;51.174;4.438;2023-11-19T13:57:39;34.67;;;4.53;;
26080;SDS011;13991;51.174;4.438;2023-11-19T14:00:06;43.53;;;5.27;;
26080;SDS011;13991;51.174;4.438;2023-11-19T14:02:39;42.63;;;5.53;;
26080;SDS011;13991;51.174;4.438;2023-11-19T14:05:05;50.07;;;4.17;;
26080;SDS011;13991;51.174;4.438;2023-11-19T14:07:32;46.17;;;4.80;;
26080;SDS011;13991;51.174;4.438;2023-11-19T14:09:58;48.33;;;6.80;;
26080;SDS011;13991;51.174;4.438;2023-11-19T14:12:23;50.60;;;5.43;;
26080;SDS011;13991;51.174;4.438;2023-11-19T14:14:49;40.20;;;4.87;;
26080;SDS011;13991;51.174;4.438;2023-11-19T14:17:14;41.97;;;4.90;;
26080;SDS011;13991;51.174;4.438;2023-11-19T14:19:41;55.40;;;5.47;;
26080;SDS011;13991;51.174;4.438;2023-11-19T14:22:07;38.27;;;5.07;;
26080;SDS011;13991;51.174;4.438;2023-11-19T14:24:33;49.47;;;5.53;;
26080;SDS011;13991;51.174;4.438;2023-11-19T14:26:59;44.60;;;5.90;;
26080;SDS011;13991;51.174;4.438;2023-11-19T14:29:26;38.93;;;4.30;;
26080;SDS011;13991;51.174;4.438;2023-11-19T14:31:52;59.30;;;5.47;;
26080;SDS011;13991;51.174;4.438;2023-11-19T14:34:21;40.90;;;4.40;;
26080;SDS011;13991;51.174;4.438;2023-11-19T14:36:47;36.53;;;4.53;;
26080;SDS011;13991;51.174;4.438;2023-11-19T14:39:14;32.60;;;4.27;;
26080;SDS011;13991;51.174;4.438;2023-11-19T14:41:40;40.20;;;4.77;;
26080;SDS011;13991;51.174;4.438;2023-11-19T14:44:05;39.77;;;4.73;;
26080;SDS011;13991;51.174;4.438;2023-11-19T14:46:31;46.83;;;5.47;;
26080;SDS011;13991;51.174;4.438;2023-11-19T14:48:57;50.17;;;4.57;;
26080;SDS011;13991;51.174;4.438;2023-11-19T14:51:22;44.93;;;4.47;;
26080;SDS011;13991;51.174;4.438;2023-11-19T14:53:48;37.70;;;4.50;;
26080;SDS011;13991;51.174;4.438;2023-11-19T14:56:14;31.57;;;4.23;;